createdAt,value
2022-09-21T03:18:22.943Z,5.11
2022-09-21T03:21:32.918Z,5.11
2022-09-21T03:24:46.911Z,5.11
2022-09-21T03:27:57.109Z,5.11
2022-09-21T03:31:07.462Z,5.05
2022-09-21T03:34:18.679Z,4.95
2022-09-21T03:37:31.093Z,4.94
2022-09-21T03:40:41.039Z,4.94
2022-09-21T03:43:51.001Z,4.91
2022-09-21T03:47:00.902Z,4.93
2022-09-21T03:50:13.181Z,4.95
2022-09-21T03:53:23.111Z,4.95
2022-09-21T03:56:33.036Z,4.93
2022-09-21T03:59:43.560Z,4.91
2022-09-21T04:02:53.546Z,4.88
2022-09-21T04:06:10.188Z,4.84
2022-09-21T04:09:20.083Z,4.83
2022-09-21T04:12:30.168Z,4.84
2022-09-21T04:15:40.296Z,4.83
2022-09-21T04:18:50.351Z,4.78
2022-09-21T04:22:01.619Z,4.77
2022-09-21T04:25:12.845Z,4.73
2022-09-21T04:28:23.672Z,4.69
2022-09-21T04:31:34.574Z,4.70
2022-09-21T04:34:44.742Z,4.68
2022-09-21T04:37:57.344Z,4.64
2022-09-21T04:41:07.496Z,4.59
2022-09-21T04:44:18.690Z,4.54
2022-09-21T04:47:31.156Z,4.51
2022-09-21T04:50:41.100Z,4.50
2022-09-21T04:53:54.031Z,4.52
2022-09-21T04:57:03.972Z,4.57
2022-09-21T05:00:14.494Z,4.57
2022-09-21T07:06:46.621Z,8.14
2022-09-21T07:10:07.229Z,8.43
2022-09-21T07:13:17.779Z,8.64
2022-09-21T07:16:27.992Z,8.84
2022-09-21T07:19:37.733Z,9.02
2022-09-21T07:22:50.133Z,9.26
2022-09-21T07:26:04.659Z,9.50
2022-09-21T07:29:14.261Z,9.68
2022-09-21T07:32:24.309Z,9.80
2022-09-21T07:35:34.717Z,9.95
2022-09-21T07:39:10.360Z,10.13
2022-09-21T07:42:22.707Z,10.39
2022-09-21T07:45:35.114Z,10.71
2022-09-21T07:48:44.937Z,10.87
2022-09-21T07:51:54.516Z,10.91
2022-09-21T07:55:08.364Z,10.94
2022-09-21T07:58:33.187Z,11.02
2022-09-21T08:01:42.959Z,11.03
2022-09-21T08:04:54.073Z,11.14
2022-09-21T08:08:03.875Z,11.31
2022-09-21T08:11:13.462Z,11.42
2022-09-21T08:14:26.740Z,11.58
2022-09-21T08:17:39.310Z,11.70
2022-09-21T08:20:55.565Z,11.72
2022-09-21T08:24:05.716Z,11.94
2022-09-21T08:27:16.302Z,12.27
2022-09-21T08:30:27.966Z,12.39
2022-09-21T08:33:39.047Z,12.75
2022-09-21T08:36:53.017Z,13.21
2022-09-21T08:40:07.412Z,13.85
2022-09-21T08:43:23.633Z,14.19
2022-09-21T08:46:35.722Z,14.15
2022-09-21T08:49:52.257Z,14.05
2022-09-21T08:53:07.346Z,14.08
2022-09-21T08:56:17.603Z,14.27
2022-09-21T08:59:27.350Z,14.44
2022-09-21T09:02:54.083Z,14.47
2022-09-21T09:06:16.114Z,14.72
2022-09-21T09:09:40.461Z,15.00
2022-09-21T09:13:04.141Z,15.20
2022-09-21T09:16:21.800Z,15.38
2022-09-21T09:19:38.951Z,15.50
2022-09-21T09:22:56.969Z,15.89
2022-09-21T09:26:12.779Z,16.36
2022-09-21T09:29:30.010Z,16.84
2022-09-21T09:32:47.701Z,17.02
2022-09-21T09:36:03.294Z,16.93
2022-09-21T09:39:16.280Z,17.56
2022-09-21T09:42:42.293Z,18.62
2022-09-21T09:46:03.215Z,19.49
2022-09-21T09:49:25.797Z,19.81
2022-09-21T09:52:36.510Z,19.93
2022-09-21T09:55:50.221Z,20.31
2022-09-21T09:59:08.062Z,20.35
2022-09-21T10:02:22.209Z,20.72
2022-09-21T10:05:37.356Z,21.03
2022-09-21T10:08:47.509Z,20.71
2022-09-21T10:12:01.320Z,20.91
2022-09-21T10:15:12.761Z,21.02
2022-09-21T10:18:24.691Z,20.90
2022-09-21T10:21:36.567Z,21.04
2022-09-21T10:24:50.743Z,21.41
2022-09-21T10:28:02.999Z,21.57
2022-09-21T10:31:22.441Z,21.51
2022-09-21T10:34:35.101Z,21.15
2022-09-21T10:37:48.365Z,21.19
2022-09-21T10:40:59.130Z,21.79
2022-09-21T10:44:17.319Z,21.60
2022-09-21T10:47:37.122Z,21.80
2022-09-21T10:50:49.256Z,21.79
2022-09-21T10:53:59.655Z,21.95
2022-09-21T10:57:15.698Z,22.17
2022-09-21T11:00:36.439Z,21.93
2022-09-21T11:03:54.090Z,21.95
2022-09-21T11:07:12.712Z,21.12
2022-09-21T11:10:34.190Z,20.65
2022-09-21T11:13:50.762Z,21.21
2022-09-21T11:17:08.590Z,21.23
2022-09-21T11:20:25.590Z,21.39
2022-09-21T11:23:45.557Z,21.33
2022-09-21T11:27:02.763Z,21.59
2022-09-21T11:30:15.313Z,22.25
2022-09-21T11:33:50.584Z,21.50
2022-09-21T11:37:11.268Z,20.85
2022-09-21T11:40:37.536Z,20.88
2022-09-21T11:44:03.066Z,21.07
2022-09-21T11:47:29.754Z,21.20
2022-09-21T11:50:55.200Z,20.71
2022-09-21T11:54:28.194Z,20.44
2022-09-21T11:57:44.677Z,20.83
2022-09-21T12:01:02.172Z,21.33
2022-09-21T12:04:31.000Z,21.72
2022-09-21T12:08:03.360Z,22.02
2022-09-21T12:11:22.441Z,21.80
2022-09-21T12:17:57.346Z,22.34
2022-09-21T12:21:14.789Z,22.59
2022-09-21T12:24:31.942Z,22.96
2022-09-21T12:27:47.180Z,22.97
2022-09-21T12:31:01.570Z,22.99
2022-09-21T12:34:18.755Z,22.97
2022-09-21T12:37:33.849Z,23.33
2022-09-21T12:40:52.506Z,23.41
2022-09-21T12:44:13.086Z,22.47
2022-09-21T12:47:28.211Z,21.92
2022-09-21T12:50:43.544Z,21.98
2022-09-21T12:53:56.032Z,22.27
2022-09-21T12:57:42.688Z,22.16
2022-09-21T13:00:58.625Z,22.09
2022-09-21T13:04:28.893Z,22.00
2022-09-21T13:07:52.551Z,21.94
2022-09-21T13:11:05.803Z,21.60
2022-09-21T13:14:18.278Z,21.89
2022-09-21T13:17:32.062Z,22.19
2022-09-21T13:20:42.043Z,22.21
2022-09-21T13:23:55.842Z,22.31
2022-09-21T13:27:06.546Z,22.38
2022-09-21T13:30:32.491Z,21.84
2022-09-21T13:34:02.647Z,21.42
2022-09-21T13:37:29.130Z,21.21
2022-09-21T13:40:38.818Z,20.94
2022-09-21T13:43:50.553Z,20.36
2022-09-21T13:47:02.217Z,19.92
2022-09-21T13:50:22.175Z,19.67
2022-09-21T13:53:38.360Z,19.44
2022-09-21T13:56:57.140Z,19.32
2022-09-21T14:00:27.715Z,19.18
2022-09-21T14:03:45.198Z,18.91
2022-09-21T14:06:56.787Z,18.47
2022-09-21T14:10:09.124Z,18.14
2022-09-21T14:13:28.491Z,18.13
2022-09-21T14:16:52.131Z,18.07
2022-09-21T14:20:04.524Z,18.01
2022-09-21T14:23:28.962Z,17.82
2022-09-21T14:26:52.813Z,17.80
2022-09-21T14:30:07.739Z,17.82
2022-09-21T14:33:27.607Z,17.69
2022-09-21T14:36:43.228Z,17.78
2022-09-21T14:39:53.548Z,17.86
2022-09-21T14:43:09.786Z,17.72
2022-09-21T14:46:45.653Z,17.50
2022-09-21T14:50:10.667Z,17.53
2022-09-21T14:53:41.980Z,17.69
2022-09-21T14:57:08.599Z,17.65
2022-09-21T15:00:23.377Z,17.67
2022-09-21T15:03:48.849Z,17.71
2022-09-21T15:07:20.048Z,17.54
2022-09-21T15:10:43.743Z,17.14
2022-09-21T15:14:11.770Z,16.88
2022-09-21T15:17:26.546Z,16.69
2022-09-21T15:20:36.198Z,16.83
2022-09-21T15:23:45.719Z,16.90
2022-09-21T15:27:05.341Z,16.96
2022-09-21T15:30:21.796Z,17.00
2022-09-21T15:33:31.940Z,17.09
2022-09-21T15:36:49.011Z,17.05
2022-09-21T15:40:02.782Z,16.97
2022-09-21T15:43:21.867Z,16.74
2022-09-21T15:46:32.790Z,16.72
2022-09-21T15:49:48.914Z,16.67
2022-09-21T15:53:05.501Z,16.67
2022-09-21T15:56:20.303Z,16.70
2022-09-21T15:59:31.422Z,16.56
2022-09-21T16:02:42.450Z,16.57
2022-09-21T16:05:54.329Z,16.41
2022-09-21T16:09:29.902Z,16.47
2022-09-21T16:12:42.361Z,16.38
2022-09-21T16:16:02.441Z,16.38
2022-09-21T16:19:12.520Z,16.45
2022-09-21T16:22:25.763Z,16.43
2022-09-21T16:25:38.230Z,16.36
2022-09-21T16:28:47.967Z,16.28
2022-09-21T16:32:28.742Z,16.25
2022-09-21T16:35:40.111Z,16.16
2022-09-21T16:38:52.799Z,16.12
2022-09-21T16:42:05.437Z,16.08
2022-09-21T16:45:23.596Z,15.94
2022-09-21T16:48:34.518Z,15.82
2022-09-21T16:51:44.322Z,15.71
2022-09-21T16:54:54.819Z,15.61
2022-09-21T16:58:04.408Z,15.48
2022-09-21T17:01:18.127Z,15.29
2022-09-21T17:04:31.983Z,15.12
2022-09-21T17:07:41.523Z,14.95
2022-09-21T17:10:51.163Z,14.75
2022-09-21T17:14:04.075Z,14.58
2022-09-21T17:17:20.183Z,14.35
2022-09-21T17:20:35.436Z,14.08
2022-09-21T17:23:45.299Z,13.94
2022-09-21T17:26:54.948Z,13.80
2022-09-21T17:30:07.117Z,13.64
2022-09-21T17:33:21.691Z,13.48
2022-09-21T17:36:32.590Z,13.37
2022-09-21T17:39:44.884Z,13.21
2022-09-21T17:42:57.334Z,13.11
2022-09-21T17:46:15.994Z,12.98
2022-09-21T17:49:26.720Z,12.83
2022-09-21T17:52:49.087Z,12.68
2022-09-21T17:56:00.848Z,12.53
2022-09-21T17:59:26.208Z,12.38
2022-09-21T18:02:36.001Z,12.26
2022-09-21T18:05:46.560Z,12.17
2022-09-21T18:08:57.925Z,12.04
2022-09-21T18:12:35.117Z,11.95
2022-09-21T18:15:57.729Z,11.87
2022-09-21T18:19:26.344Z,11.79
2022-09-21T18:22:41.838Z,11.75
2022-09-21T18:25:57.238Z,11.58
2022-09-21T18:29:37.930Z,11.37
2022-09-21T18:32:56.927Z,11.14
2022-09-21T18:36:19.659Z,11.03
2022-09-21T18:39:38.569Z,10.97
2022-09-21T18:42:55.730Z,10.89
2022-09-21T18:46:09.737Z,10.78
2022-09-21T18:49:35.002Z,10.62
2022-09-21T18:52:51.926Z,10.49
2022-09-21T18:56:02.039Z,10.42
2022-09-21T18:59:14.649Z,10.34
2022-09-21T19:02:24.639Z,10.23
2022-09-21T19:05:34.647Z,10.16
2022-09-21T19:08:54.879Z,10.04
2022-09-21T19:12:16.883Z,9.89
2022-09-21T19:15:59.925Z,9.68
2022-09-21T19:19:22.441Z,9.53
2022-09-21T19:23:22.518Z,9.43
2022-09-21T19:26:36.911Z,9.31
2022-09-21T19:29:56.340Z,9.26
2022-09-21T19:33:45.494Z,9.24
2022-09-21T19:36:51.755Z,9.11
2022-09-21T19:40:06.393Z,9.02
2022-09-21T19:43:23.218Z,8.94
2022-09-21T19:46:38.989Z,8.87
2022-09-21T19:49:53.945Z,8.84
2022-09-21T19:53:17.753Z,8.88
